sensor_id;sensor_type;location;lat;lon;timestamp;P1;durP1;ratioP1;P2;durP2;ratioP2
70997;SDS011;58663;52.040;4.634;2023-04-15T00:00:14;10.07;;;4.53;;
70997;SDS011;58663;52.040;4.634;2023-04-15T00:02:40;5.25;;;3.83;;
70997;SDS011;58663;52.040;4.634;2023-04-15T00:05:06;10.80;;;4.28;;
70997;SDS011;58663;52.040;4.634;2023-04-15T00:07:31;6.13;;;4.03;;
70997;SDS011;58663;52.040;4.634;2023-04-15T00:09:57;6.95;;;4.25;;
70997;SDS011;58663;52.040;4.634;2023-04-15T00:12:23;7.72;;;4.20;;
70997;SDS011;58663;52.040;4.634;2023-04-15T00:14:51;8.45;;;4.57;;
70997;SDS011;58663;52.040;4.634;2023-04-15T00:17:17;8.00;;;4.25;;
70997;SDS011;58663;52.040;4.634;2023-04-15T00:19:42;6.97;;;4.50;;
70997;SDS011;58663;52.040;4.634;2023-04-15T00:22:09;6.63;;;4.22;;
70997;SDS011;58663;52.040;4.634;2023-04-15T00:24:35;9.68;;;4.45;;
70997;SDS011;58663;52.040;4.634;2023-04-15T00:27:00;7.00;;;3.67;;
70997;SDS011;58663;52.040;4.634;2023-04-15T00:29:26;10.25;;;4.88;;
70997;SDS011;58663;52.040;4.634;2023-04-15T00:31:52;12.73;;;5.20;;
70997;SDS011;58663;52.040;4.634;2023-04-15T00:34:17;8.82;;;4.80;;
70997;SDS011;58663;52.040;4.634;2023-04-15T00:36:43;5.60;;;4.18;;
70997;SDS011;58663;52.040;4.634;2023-04-15T00:39:08;12.30;;;4.63;;
70997;SDS011;58663;52.040;4.634;2023-04-15T00:41:34;9.27;;;4.72;;
70997;SDS011;58663;52.040;4.634;2023-04-15T00:44:03;9.38;;;5.05;;
70997;SDS011;58663;52.040;4.634;2023-04-15T00:46:29;6.55;;;4.57;;
70997;SDS011;58663;52.040;4.634;2023-04-15T00:48:55;9.77;;;4.85;;
70997;SDS011;58663;52.040;4.634;2023-04-15T00:51:20;10.38;;;4.85;;
70997;SDS011;58663;52.040;4.634;2023-04-15T00:53:45;12.15;;;4.60;;
70997;SDS011;58663;52.040;4.634;2023-04-15T00:56:11;13.13;;;4.70;;
70997;SDS011;58663;52.040;4.634;2023-04-15T00:58:36;8.35;;;5.15;;
70997;SDS011;58663;52.040;4.634;2023-04-15T01:01:02;9.75;;;4.70;;
70997;SDS011;58663;52.040;4.634;2023-04-15T01:03:28;8.70;;;5.10;;
70997;SDS011;58663;52.040;4.634;2023-04-15T01:05:53;11.23;;;4.88;;
70997;SDS011;58663;52.040;4.634;2023-04-15T01:08:25;10.88;;;5.45;;
70997;SDS011;58663;52.040;4.634;2023-04-15T01:10:52;9.25;;;4.85;;
70997;SDS011;58663;52.040;4.634;2023-04-15T01:13:19;7.97;;;4.57;;
70997;SDS011;58663;52.040;4.634;2023-04-15T01:15:45;8.70;;;4.93;;
70997;SDS011;58663;52.040;4.634;2023-04-15T01:18:11;6.80;;;4.75;;
70997;SDS011;58663;52.040;4.634;2023-04-15T01:20:37;7.75;;;4.80;;
70997;SDS011;58663;52.040;4.634;2023-04-15T01:23:02;7.30;;;5.20;;
70997;SDS011;58663;52.040;4.634;2023-04-15T01:25:31;12.65;;;5.22;;
70997;SDS011;58663;52.040;4.634;2023-04-15T01:27:57;11.10;;;5.20;;
70997;SDS011;58663;52.040;4.634;2023-04-15T01:30:23;8.95;;;5.18;;
70997;SDS011;58663;52.040;4.634;2023-04-15T01:32:49;14.23;;;5.05;;
70997;SDS011;58663;52.040;4.634;2023-04-15T01:35:15;7.80;;;4.72;;
70997;SDS011;58663;52.040;4.634;2023-04-15T01:37:41;7.10;;;4.88;;
70997;SDS011;58663;52.040;4.634;2023-04-15T01:40:07;8.93;;;4.88;;
70997;SDS011;58663;52.040;4.634;2023-04-15T01:42:33;12.32;;;5.18;;
70997;SDS011;58663;52.040;4.634;2023-04-15T01:44:59;8.13;;;4.95;;
70997;SDS011;58663;52.040;4.634;2023-04-15T01:47:25;7.10;;;4.95;;
70997;SDS011;58663;52.040;4.634;2023-04-15T01:49:51;8.48;;;5.25;;
70997;SDS011;58663;52.040;4.634;2023-04-15T01:52:16;8.00;;;4.97;;
70997;SDS011;58663;52.040;4.634;2023-04-15T01:54:42;7.78;;;4.97;;
70997;SDS011;58663;52.040;4.634;2023-04-15T01:57:07;13.10;;;5.72;;
70997;SDS011;58663;52.040;4.634;2023-04-15T01:59:33;7.72;;;4.40;;
70997;SDS011;58663;52.040;4.634;2023-04-15T02:01:59;9.43;;;4.88;;
70997;SDS011;58663;52.040;4.634;2023-04-15T02:04:24;9.48;;;5.20;;
70997;SDS011;58663;52.040;4.634;2023-04-15T02:06:50;8.82;;;4.90;;
70997;SDS011;58663;52.040;4.634;2023-04-15T02:09:16;7.25;;;5.05;;
70997;SDS011;58663;52.040;4.634;2023-04-15T02:11:41;10.82;;;5.60;;
70997;SDS011;58663;52.040;4.634;2023-04-15T02:14:06;6.95;;;4.68;;
70997;SDS011;58663;52.040;4.634;2023-04-15T02:16:32;10.27;;;5.00;;
70997;SDS011;58663;52.040;4.634;2023-04-15T02:18:58;11.38;;;5.95;;
70997;SDS011;58663;52.040;4.634;2023-04-15T02:21:25;9.88;;;5.28;;
70997;SDS011;58663;52.040;4.634;2023-04-15T02:23:50;9.82;;;5.57;;
70997;SDS011;58663;52.040;4.634;2023-04-15T02:26:17;7.93;;;5.45;;
70997;SDS011;58663;52.040;4.634;2023-04-15T02:28:43;10.27;;;5.45;;
70997;SDS011;58663;52.040;4.634;2023-04-15T02:31:08;12.00;;;5.28;;
70997;SDS011;58663;52.040;4.634;2023-04-15T02:33:34;8.07;;;5.20;;
70997;SDS011;58663;52.040;4.634;2023-04-15T02:35:59;7.75;;;5.85;;
70997;SDS011;58663;52.040;4.634;2023-04-15T02:38:25;13.02;;;6.90;;
70997;SDS011;58663;52.040;4.634;2023-04-15T02:40:51;8.80;;;5.72;;
70997;SDS011;58663;52.040;4.634;2023-04-15T02:43:16;11.13;;;6.63;;
70997;SDS011;58663;52.040;4.634;2023-04-15T02:45:42;8.98;;;5.72;;
70997;SDS011;58663;52.040;4.634;2023-04-15T02:48:08;9.18;;;6.05;;
70997;SDS011;58663;52.040;4.634;2023-04-15T02:50:33;10.40;;;6.22;;
70997;SDS011;58663;52.040;4.634;2023-04-15T02:52:59;9.13;;;6.10;;
70997;SDS011;58663;52.040;4.634;2023-04-15T02:55:25;10.18;;;5.60;;
70997;SDS011;58663;52.040;4.634;2023-04-15T02:57:51;9.23;;;5.75;;
70997;SDS011;58663;52.040;4.634;2023-04-15T03:00:16;11.65;;;6.47;;
70997;SDS011;58663;52.040;4.634;2023-04-15T03:02:42;11.75;;;5.93;;
70997;SDS011;58663;52.040;4.634;2023-04-15T03:05:10;9.90;;;5.20;;
70997;SDS011;58663;52.040;4.634;2023-04-15T03:07:39;11.57;;;6.30;;
70997;SDS011;58663;52.040;4.634;2023-04-15T03:10:05;10.45;;;5.55;;
70997;SDS011;58663;52.040;4.634;2023-04-15T03:12:31;9.65;;;5.43;;
70997;SDS011;58663;52.040;4.634;2023-04-15T03:14:57;10.20;;;7.03;;
70997;SDS011;58663;52.040;4.634;2023-04-15T03:17:22;11.05;;;6.05;;
70997;SDS011;58663;52.040;4.634;2023-04-15T03:19:47;7.50;;;5.43;;
70997;SDS011;58663;52.040;4.634;2023-04-15T03:22:13;13.93;;;5.78;;
70997;SDS011;58663;52.040;4.634;2023-04-15T03:24:38;9.77;;;6.72;;
70997;SDS011;58663;52.040;4.634;2023-04-15T03:27:03;16.17;;;7.10;;
70997;SDS011;58663;52.040;4.634;2023-04-15T03:29:31;9.30;;;6.07;;
70997;SDS011;58663;52.040;4.634;2023-04-15T03:31:57;13.40;;;6.15;;
70997;SDS011;58663;52.040;4.634;2023-04-15T03:34:22;9.32;;;5.85;;
70997;SDS011;58663;52.040;4.634;2023-04-15T03:36:48;13.18;;;6.32;;
70997;SDS011;58663;52.040;4.634;2023-04-15T03:39:13;10.23;;;6.05;;
70997;SDS011;58663;52.040;4.634;2023-04-15T03:41:38;12.02;;;5.80;;
70997;SDS011;58663;52.040;4.634;2023-04-15T03:44:04;7.18;;;5.80;;
70997;SDS011;58663;52.040;4.634;2023-04-15T03:46:29;10.55;;;6.57;;
70997;SDS011;58663;52.040;4.634;2023-04-15T03:48:55;11.05;;;5.90;;
70997;SDS011;58663;52.040;4.634;2023-04-15T03:51:20;10.57;;;6.15;;
70997;SDS011;58663;52.040;4.634;2023-04-15T03:53:46;11.30;;;6.15;;
70997;SDS011;58663;52.040;4.634;2023-04-15T03:56:11;9.15;;;5.97;;
70997;SDS011;58663;52.040;4.634;2023-04-15T03:58:36;11.90;;;6.43;;
70997;SDS011;58663;52.040;4.634;2023-04-15T04:01:02;9.32;;;5.72;;
70997;SDS011;58663;52.040;4.634;2023-04-15T04:03:27;12.38;;;5.95;;
70997;SDS011;58663;52.040;4.634;2023-04-15T04:05:53;10.23;;;6.25;;
70997;SDS011;58663;52.040;4.634;2023-04-15T04:08:18;10.35;;;6.18;;
70997;SDS011;58663;52.040;4.634;2023-04-15T04:10:45;16.45;;;6.40;;
70997;SDS011;58663;52.040;4.634;2023-04-15T04:13:11;10.23;;;5.78;;
70997;SDS011;58663;52.040;4.634;2023-04-15T04:15:36;12.02;;;5.80;;
70997;SDS011;58663;52.040;4.634;2023-04-15T04:18:01;8.18;;;5.72;;
70997;SDS011;58663;52.040;4.634;2023-04-15T04:20:27;11.55;;;5.60;;
70997;SDS011;58663;52.040;4.634;2023-04-15T04:22:52;11.25;;;6.40;;
70997;SDS011;58663;52.040;4.634;2023-04-15T04:25:17;10.55;;;6.28;;
70997;SDS011;58663;52.040;4.634;2023-04-15T04:27:43;9.90;;;6.20;;
70997;SDS011;58663;52.040;4.634;2023-04-15T04:30:09;8.23;;;5.85;;
70997;SDS011;58663;52.040;4.634;2023-04-15T04:32:35;8.60;;;5.55;;
70997;SDS011;58663;52.040;4.634;2023-04-15T04:35:00;9.40;;;6.25;;
70997;SDS011;58663;52.040;4.634;2023-04-15T04:37:26;12.75;;;6.25;;
70997;SDS011;58663;52.040;4.634;2023-04-15T04:39:51;9.70;;;6.45;;
70997;SDS011;58663;52.040;4.634;2023-04-15T04:42:16;14.40;;;6.30;;
70997;SDS011;58663;52.040;4.634;2023-04-15T04:44:42;12.82;;;6.55;;
70997;SDS011;58663;52.040;4.634;2023-04-15T04:47:07;11.85;;;6.03;;
70997;SDS011;58663;52.040;4.634;2023-04-15T04:49:33;8.80;;;5.60;;
70997;SDS011;58663;52.040;4.634;2023-04-15T04:51:58;11.85;;;6.32;;
70997;SDS011;58663;52.040;4.634;2023-04-15T04:54:23;13.52;;;6.07;;
70997;SDS011;58663;52.040;4.634;2023-04-15T04:56:49;11.23;;;6.88;;
70997;SDS011;58663;52.040;4.634;2023-04-15T04:59:14;14.80;;;7.05;;
70997;SDS011;58663;52.040;4.634;2023-04-15T05:01:40;12.65;;;6.93;;
70997;SDS011;58663;52.040;4.634;2023-04-15T05:04:05;9.68;;;6.30;;
70997;SDS011;58663;52.040;4.634;2023-04-15T05:06:31;10.40;;;6.07;;
70997;SDS011;58663;52.040;4.634;2023-04-15T05:08:57;12.13;;;7.03;;
70997;SDS011;58663;52.040;4.634;2023-04-15T05:11:22;12.20;;;6.45;;
70997;SDS011;58663;52.040;4.634;2023-04-15T05:13:48;12.13;;;6.40;;
70997;SDS011;58663;52.040;4.634;2023-04-15T05:16:13;11.48;;;6.65;;
70997;SDS011;58663;52.040;4.634;2023-04-15T05:18:38;9.80;;;6.22;;
70997;SDS011;58663;52.040;4.634;2023-04-15T05:21:04;15.55;;;6.78;;
70997;SDS011;58663;52.040;4.634;2023-04-15T05:23:29;15.10;;;6.88;;
70997;SDS011;58663;52.040;4.634;2023-04-15T05:25:55;10.88;;;6.28;;
70997;SDS011;58663;52.040;4.634;2023-04-15T05:28:20;13.23;;;7.35;;
70997;SDS011;58663;52.040;4.634;2023-04-15T05:30:46;12.73;;;7.40;;
70997;SDS011;58663;52.040;4.634;2023-04-15T05:33:11;8.70;;;6.15;;
70997;SDS011;58663;52.040;4.634;2023-04-15T05:35:36;10.32;;;6.70;;
70997;SDS011;58663;52.040;4.634;2023-04-15T05:38:02;13.38;;;7.13;;
70997;SDS011;58663;52.040;4.634;2023-04-15T05:40:27;9.20;;;6.32;;
70997;SDS011;58663;52.040;4.634;2023-04-15T05:42:54;10.27;;;6.82;;
70997;SDS011;58663;52.040;4.634;2023-04-15T05:45:19;13.23;;;6.45;;
70997;SDS011;58663;52.040;4.634;2023-04-15T05:47:45;11.10;;;6.82;;
70997;SDS011;58663;52.040;4.634;2023-04-15T05:50:10;11.23;;;6.25;;
70997;SDS011;58663;52.040;4.634;2023-04-15T05:52:36;11.68;;;6.88;;
70997;SDS011;58663;52.040;4.634;2023-04-15T05:55:01;11.98;;;6.03;;
70997;SDS011;58663;52.040;4.634;2023-04-15T05:57:27;14.35;;;6.60;;
70997;SDS011;58663;52.040;4.634;2023-04-15T05:59:52;10.40;;;6.47;;
70997;SDS011;58663;52.040;4.634;2023-04-15T06:02:18;10.68;;;6.30;;
70997;SDS011;58663;52.040;4.634;2023-04-15T06:04:43;16.17;;;6.13;;
70997;SDS011;58663;52.040;4.634;2023-04-15T06:07:08;12.45;;;7.03;;
70997;SDS011;58663;52.040;4.634;2023-04-15T06:09:34;12.00;;;6.53;;
70997;SDS011;58663;52.040;4.634;2023-04-15T06:12:00;13.32;;;6.05;;
70997;SDS011;58663;52.040;4.634;2023-04-15T06:14:26;11.30;;;6.40;;
70997;SDS011;58663;52.040;4.634;2023-04-15T06:16:51;15.60;;;6.30;;
70997;SDS011;58663;52.040;4.634;2023-04-15T06:19:17;11.32;;;6.50;;
70997;SDS011;58663;52.040;4.634;2023-04-15T06:21:42;9.60;;;6.43;;
70997;SDS011;58663;52.040;4.634;2023-04-15T06:24:08;16.40;;;6.65;;
70997;SDS011;58663;52.040;4.634;2023-04-15T06:26:33;11.63;;;6.68;;
70997;SDS011;58663;52.040;4.634;2023-04-15T06:28:59;12.27;;;6.80;;
70997;SDS011;58663;52.040;4.634;2023-04-15T06:31:24;10.45;;;6.28;;
70997;SDS011;58663;52.040;4.634;2023-04-15T06:33:50;10.10;;;6.18;;
70997;SDS011;58663;52.040;4.634;2023-04-15T06:36:15;10.50;;;6.45;;
70997;SDS011;58663;52.040;4.634;2023-04-15T06:38:41;14.43;;;7.35;;
70997;SDS011;58663;52.040;4.634;2023-04-15T06:41:06;10.05;;;6.05;;
70997;SDS011;58663;52.040;4.634;2023-04-15T06:43:32;9.50;;;6.30;;
70997;SDS011;58663;52.040;4.634;2023-04-15T06:45:57;13.57;;;6.93;;
70997;SDS011;58663;52.040;4.634;2023-04-15T06:48:23;12.20;;;6.75;;
70997;SDS011;58663;52.040;4.634;2023-04-15T06:50:48;12.77;;;7.32;;
70997;SDS011;58663;52.040;4.634;2023-04-15T06:53:14;10.85;;;6.40;;
70997;SDS011;58663;52.040;4.634;2023-04-15T06:55:39;9.95;;;6.05;;
70997;SDS011;58663;52.040;4.634;2023-04-15T06:58:05;14.80;;;6.93;;
70997;SDS011;58663;52.040;4.634;2023-04-15T07:00:31;14.15;;;7.00;;
70997;SDS011;58663;52.040;4.634;2023-04-15T07:02:57;10.90;;;6.60;;
70997;SDS011;58663;52.040;4.634;2023-04-15T07:05:24;12.95;;;6.00;;
70997;SDS011;58663;52.040;4.634;2023-04-15T07:07:50;11.60;;;6.68;;
70997;SDS011;58663;52.040;4.634;2023-04-15T07:10:15;10.85;;;6.07;;
70997;SDS011;58663;52.040;4.634;2023-04-15T07:12:41;16.38;;;6.65;;
70997;SDS011;58663;52.040;4.634;2023-04-15T07:15:06;12.50;;;6.28;;
70997;SDS011;58663;52.040;4.634;2023-04-15T07:17:32;9.13;;;6.22;;
70997;SDS011;58663;52.040;4.634;2023-04-15T07:19:58;13.07;;;6.35;;
70997;SDS011;58663;52.040;4.634;2023-04-15T07:22:23;8.10;;;5.80;;
70997;SDS011;58663;52.040;4.634;2023-04-15T07:24:49;11.30;;;6.68;;
70997;SDS011;58663;52.040;4.634;2023-04-15T07:27:14;10.57;;;6.25;;
70997;SDS011;58663;52.040;4.634;2023-04-15T07:29:40;9.48;;;5.55;;
70997;SDS011;58663;52.040;4.634;2023-04-15T07:32:06;10.43;;;6.03;;
70997;SDS011;58663;52.040;4.634;2023-04-15T07:34:31;9.85;;;5.90;;
70997;SDS011;58663;52.040;4.634;2023-04-15T07:36:56;8.32;;;6.18;;
70997;SDS011;58663;52.040;4.634;2023-04-15T07:39:22;9.70;;;6.05;;
70997;SDS011;58663;52.040;4.634;2023-04-15T07:41:47;9.48;;;6.57;;
70997;SDS011;58663;52.040;4.634;2023-04-15T07:44:13;9.93;;;6.45;;
70997;SDS011;58663;52.040;4.634;2023-04-15T07:46:38;12.15;;;6.65;;
70997;SDS011;58663;52.040;4.634;2023-04-15T07:49:04;17.05;;;7.35;;
70997;SDS011;58663;52.040;4.634;2023-04-15T07:51:29;13.73;;;6.57;;
70997;SDS011;58663;52.040;4.634;2023-04-15T07:53:56;11.27;;;6.55;;
70997;SDS011;58663;52.040;4.634;2023-04-15T07:56:21;9.93;;;6.07;;
70997;SDS011;58663;52.040;4.634;2023-04-15T07:58:46;8.23;;;5.78;;
70997;SDS011;58663;52.040;4.634;2023-04-15T08:01:12;11.13;;;6.03;;
70997;SDS011;58663;52.040;4.634;2023-04-15T08:03:37;11.55;;;6.75;;
70997;SDS011;58663;52.040;4.634;2023-04-15T08:06:03;11.52;;;6.40;;
70997;SDS011;58663;52.040;4.634;2023-04-15T08:08:28;11.05;;;6.45;;
70997;SDS011;58663;52.040;4.634;2023-04-15T08:10:54;10.40;;;6.25;;
70997;SDS011;58663;52.040;4.634;2023-04-15T08:13:19;11.93;;;6.20;;
70997;SDS011;58663;52.040;4.634;2023-04-15T08:15:45;9.60;;;5.70;;
70997;SDS011;58663;52.040;4.634;2023-04-15T08:18:11;10.32;;;6.00;;
70997;SDS011;58663;52.040;4.634;2023-04-15T08:20:36;9.05;;;6.10;;
70997;SDS011;58663;52.040;4.634;2023-04-15T08:23:01;10.02;;;5.72;;
70997;SDS011;58663;52.040;4.634;2023-04-15T08:25:27;7.28;;;5.10;;
70997;SDS011;58663;52.040;4.634;2023-04-15T08:27:56;13.35;;;6.15;;
70997;SDS011;58663;52.040;4.634;2023-04-15T08:30:21;10.48;;;6.63;;
70997;SDS011;58663;52.040;4.634;2023-04-15T08:32:48;9.73;;;5.95;;
70997;SDS011;58663;52.040;4.634;2023-04-15T08:35:14;11.15;;;5.78;;
70997;SDS011;58663;52.040;4.634;2023-04-15T08:37:39;10.75;;;6.05;;
70997;SDS011;58663;52.040;4.634;2023-04-15T08:40:05;10.60;;;6.35;;
70997;SDS011;58663;52.040;4.634;2023-04-15T08:42:31;8.48;;;5.65;;
70997;SDS011;58663;52.040;4.634;2023-04-15T08:47:29;10.10;;;5.53;;
70997;SDS011;58663;52.040;4.634;2023-04-15T08:49:58;6.35;;;4.63;;
70997;SDS011;58663;52.040;4.634;2023-04-15T08:52:29;6.57;;;4.80;;
70997;SDS011;58663;52.040;4.634;2023-04-15T08:54:56;8.00;;;5.03;;
70997;SDS011;58663;52.040;4.634;2023-04-15T08:57:25;8.68;;;4.95;;
70997;SDS011;58663;52.040;4.634;2023-04-15T08:59:51;8.27;;;4.85;;
70997;SDS011;58663;52.040;4.634;2023-04-15T09:02:17;6.82;;;4.32;;
70997;SDS011;58663;52.040;4.634;2023-04-15T09:04:43;9.70;;;4.97;;
70997;SDS011;58663;52.040;4.634;2023-04-15T09:07:08;9.25;;;4.72;;
70997;SDS011;58663;52.040;4.634;2023-04-15T09:09:33;8.55;;;4.95;;
70997;SDS011;58663;52.040;4.634;2023-04-15T09:12:01;6.30;;;4.18;;
70997;SDS011;58663;52.040;4.634;2023-04-15T09:14:27;8.90;;;4.63;;
70997;SDS011;58663;52.040;4.634;2023-04-15T09:17:00;8.45;;;4.40;;
70997;SDS011;58663;52.040;4.634;2023-04-15T09:19:26;6.75;;;4.20;;
70997;SDS011;58663;52.040;4.634;2023-04-15T09:21:53;10.05;;;4.53;;
70997;SDS011;58663;52.040;4.634;2023-04-15T09:24:20;11.82;;;4.50;;
70997;SDS011;58663;52.040;4.634;2023-04-15T09:26:46;10.05;;;3.70;;
70997;SDS011;58663;52.040;4.634;2023-04-15T09:29:11;5.75;;;3.45;;
70997;SDS011;58663;52.040;4.634;2023-04-15T09:31:40;7.00;;;3.33;;
70997;SDS011;58663;52.040;4.634;2023-04-15T09:34:06;4.95;;;2.70;;
70997;SDS011;58663;52.040;4.634;2023-04-15T09:39:21;7.00;;;3.23;;
70997;SDS011;58663;52.040;4.634;2023-04-15T09:42:02;5.95;;;3.72;;
70997;SDS011;58663;52.040;4.634;2023-04-15T09:44:31;5.20;;;3.30;;
70997;SDS011;58663;52.040;4.634;2023-04-15T09:46:56;6.22;;;3.47;;
70997;SDS011;58663;52.040;4.634;2023-04-15T09:49:22;6.97;;;3.13;;
70997;SDS011;58663;52.040;4.634;2023-04-15T09:51:47;3.05;;;2.17;;
70997;SDS011;58663;52.040;4.634;2023-04-15T09:54:17;6.30;;;3.28;;
70997;SDS011;58663;52.040;4.634;2023-04-15T09:56:44;3.65;;;2.25;;
70997;SDS011;58663;52.040;4.634;2023-04-15T09:59:09;3.38;;;2.15;;
70997;SDS011;58663;52.040;4.634;2023-04-15T10:01:35;5.95;;;2.72;;
70997;SDS011;58663;52.040;4.634;2023-04-15T10:04:02;6.82;;;2.75;;
70997;SDS011;58663;52.040;4.634;2023-04-15T10:06:28;5.15;;;3.05;;
70997;SDS011;58663;52.040;4.634;2023-04-15T10:08:54;6.15;;;2.67;;
70997;SDS011;58663;52.040;4.634;2023-04-15T10:11:20;5.15;;;2.60;;
70997;SDS011;58663;52.040;4.634;2023-04-15T10:13:48;5.38;;;2.63;;
70997;SDS011;58663;52.040;4.634;2023-04-15T10:16:14;3.88;;;2.47;;
70997;SDS011;58663;52.040;4.634;2023-04-15T10:18:44;4.60;;;2.72;;
70997;SDS011;58663;52.040;4.634;2023-04-15T10:21:12;7.47;;;2.75;;
70997;SDS011;58663;52.040;4.634;2023-04-15T10:23:40;6.45;;;2.90;;
70997;SDS011;58663;52.040;4.634;2023-04-15T10:26:05;4.22;;;2.53;;
70997;SDS011;58663;52.040;4.634;2023-04-15T10:28:31;4.18;;;2.20;;
70997;SDS011;58663;52.040;4.634;2023-04-15T10:30:57;5.93;;;3.08;;
70997;SDS011;58663;52.040;4.634;2023-04-15T10:33:23;6.20;;;3.05;;
70997;SDS011;58663;52.040;4.634;2023-04-15T10:35:50;6.35;;;3.60;;
70997;SDS011;58663;52.040;4.634;2023-04-15T10:38:32;5.28;;;2.83;;
70997;SDS011;58663;52.040;4.634;2023-04-15T10:43:38;8.40;;;2.70;;
70997;SDS011;58663;52.040;4.634;2023-04-15T10:46:04;4.88;;;2.42;;
70997;SDS011;58663;52.040;4.634;2023-04-15T10:48:30;4.55;;;2.30;;
70997;SDS011;58663;52.040;4.634;2023-04-15T10:50:56;7.70;;;2.70;;
70997;SDS011;58663;52.040;4.634;2023-04-15T10:53:26;5.68;;;2.78;;
70997;SDS011;58663;52.040;4.634;2023-04-15T10:55:52;4.00;;;2.67;;
70997;SDS011;58663;52.040;4.634;2023-04-15T10:58:17;4.55;;;2.60;;
70997;SDS011;58663;52.040;4.634;2023-04-15T11:00:43;7.70;;;2.80;;
70997;SDS011;58663;52.040;4.634;2023-04-15T11:03:16;5.32;;;2.58;;
70997;SDS011;58663;52.040;4.634;2023-04-15T11:08:07;7.25;;;2.97;;
70997;SDS011;58663;52.040;4.634;2023-04-15T11:12:59;4.45;;;2.50;;
70997;SDS011;58663;52.040;4.634;2023-04-15T11:17:55;5.40;;;2.85;;
70997;SDS011;58663;52.040;4.634;2023-04-15T11:20:22;4.38;;;2.40;;
70997;SDS011;58663;52.040;4.634;2023-04-15T11:22:48;6.55;;;2.65;;
70997;SDS011;58663;52.040;4.634;2023-04-15T11:25:25;5.10;;;2.50;;
70997;SDS011;58663;52.040;4.634;2023-04-15T11:27:52;3.90;;;2.25;;
70997;SDS011;58663;52.040;4.634;2023-04-15T11:30:19;3.92;;;2.15;;
70997;SDS011;58663;52.040;4.634;2023-04-15T11:32:57;4.25;;;2.60;;
70997;SDS011;58663;52.040;4.634;2023-04-15T11:35:24;4.22;;;2.38;;
70997;SDS011;58663;52.040;4.634;2023-04-15T11:37:49;5.70;;;2.67;;
70997;SDS011;58663;52.040;4.634;2023-04-15T11:40:15;8.05;;;2.67;;
70997;SDS011;58663;52.040;4.634;2023-04-15T11:43:02;8.68;;;3.33;;
70997;SDS011;58663;52.040;4.634;2023-04-15T11:45:57;5.10;;;2.50;;
70997;SDS011;58663;52.040;4.634;2023-04-15T11:48:28;6.65;;;3.00;;
70997;SDS011;58663;52.040;4.634;2023-04-15T11:50:55;6.13;;;3.47;;
70997;SDS011;58663;52.040;4.634;2023-04-15T11:53:38;5.28;;;3.05;;
70997;SDS011;58663;52.040;4.634;2023-04-15T11:56:06;4.55;;;3.03;;
70997;SDS011;58663;52.040;4.634;2023-04-15T11:58:34;5.07;;;2.75;;
70997;SDS011;58663;52.040;4.634;2023-04-15T12:01:03;5.47;;;3.05;;
70997;SDS011;58663;52.040;4.634;2023-04-15T12:03:30;7.00;;;3.63;;
70997;SDS011;58663;52.040;4.634;2023-04-15T12:11:49;4.20;;;2.85;;
70997;SDS011;58663;52.040;4.634;2023-04-15T12:21:50;2.10;;;1.80;;
70997;SDS011;58663;52.040;4.634;2023-04-15T12:24:19;4.05;;;2.00;;
70997;SDS011;58663;52.040;4.634;2023-04-15T12:26:47;2.97;;;1.92;;
70997;SDS011;58663;52.040;4.634;2023-04-15T12:29:15;3.10;;;1.77;;
70997;SDS011;58663;52.040;4.634;2023-04-15T12:31:51;2.10;;;1.80;;
70997;SDS011;58663;52.040;4.634;2023-04-15T12:34:24;7.00;;;1.92;;
70997;SDS011;58663;52.040;4.634;2023-04-15T12:36:52;2.92;;;1.88;;
70997;SDS011;58663;52.040;4.634;2023-04-15T12:39:20;2.80;;;2.08;;
70997;SDS011;58663;52.040;4.634;2023-04-15T12:41:46;4.82;;;2.10;;
70997;SDS011;58663;52.040;4.634;2023-04-15T12:44:12;3.38;;;1.80;;
70997;SDS011;58663;52.040;4.634;2023-04-15T12:46:37;2.65;;;1.77;;
70997;SDS011;58663;52.040;4.634;2023-04-15T12:49:02;2.97;;;1.92;;
70997;SDS011;58663;52.040;4.634;2023-04-15T12:51:28;6.13;;;2.58;;
70997;SDS011;58663;52.040;4.634;2023-04-15T12:53:55;3.63;;;2.05;;
70997;SDS011;58663;52.040;4.634;2023-04-15T12:56:21;4.65;;;2.15;;
70997;SDS011;58663;52.040;4.634;2023-04-15T12:58:47;6.63;;;1.90;;
70997;SDS011;58663;52.040;4.634;2023-04-15T13:01:13;5.00;;;2.28;;
70997;SDS011;58663;52.040;4.634;2023-04-15T13:03:38;6.50;;;2.55;;
70997;SDS011;58663;52.040;4.634;2023-04-15T13:06:04;7.93;;;2.70;;
70997;SDS011;58663;52.040;4.634;2023-04-15T13:08:30;3.53;;;2.20;;
70997;SDS011;58663;52.040;4.634;2023-04-15T13:10:56;6.28;;;2.20;;
70997;SDS011;58663;52.040;4.634;2023-04-15T13:13:21;4.95;;;2.60;;
70997;SDS011;58663;52.040;4.634;2023-04-15T13:15:46;1.92;;;1.73;;
70997;SDS011;58663;52.040;4.634;2023-04-15T13:18:12;2.72;;;1.60;;
70997;SDS011;58663;52.040;4.634;2023-04-15T13:20:38;2.92;;;1.63;;
70997;SDS011;58663;52.040;4.634;2023-04-15T13:23:03;4.40;;;2.00;;
70997;SDS011;58663;52.040;4.634;2023-04-15T13:25:29;3.65;;;2.17;;
70997;SDS011;58663;52.040;4.634;2023-04-15T13:27:54;4.45;;;1.70;;
70997;SDS011;58663;52.040;4.634;2023-04-15T13:30:19;3.00;;;1.83;;
70997;SDS011;58663;52.040;4.634;2023-04-15T13:32:45;2.55;;;1.70;;
70997;SDS011;58663;52.040;4.634;2023-04-15T13:35:10;2.50;;;1.38;;
70997;SDS011;58663;52.040;4.634;2023-04-15T13:37:36;3.03;;;1.52;;
70997;SDS011;58663;52.040;4.634;2023-04-15T13:40:01;3.88;;;1.77;;
70997;SDS011;58663;52.040;4.634;2023-04-15T13:42:27;3.40;;;1.52;;
70997;SDS011;58663;52.040;4.634;2023-04-15T13:44:52;5.78;;;1.90;;
70997;SDS011;58663;52.040;4.634;2023-04-15T13:47:18;2.22;;;1.60;;
70997;SDS011;58663;52.040;4.634;2023-04-15T13:49:43;3.08;;;1.55;;
70997;SDS011;58663;52.040;4.634;2023-04-15T13:52:09;3.22;;;1.73;;
70997;SDS011;58663;52.040;4.634;2023-04-15T13:54:35;1.70;;;1.13;;
70997;SDS011;58663;52.040;4.634;2023-04-15T13:57:00;4.60;;;1.65;;
70997;SDS011;58663;52.040;4.634;2023-04-15T13:59:26;9.68;;;1.70;;
70997;SDS011;58663;52.040;4.634;2023-04-15T14:01:51;2.28;;;1.50;;
70997;SDS011;58663;52.040;4.634;2023-04-15T14:04:17;2.75;;;1.77;;
70997;SDS011;58663;52.040;4.634;2023-04-15T14:06:42;2.13;;;1.50;;
70997;SDS011;58663;52.040;4.634;2023-04-15T14:09:07;1.98;;;1.65;;
70997;SDS011;58663;52.040;4.634;2023-04-15T14:11:33;3.15;;;1.50;;
70997;SDS011;58663;52.040;4.634;2023-04-15T14:14:00;6.05;;;1.40;;
70997;SDS011;58663;52.040;4.634;2023-04-15T14:16:26;3.45;;;2.22;;
70997;SDS011;58663;52.040;4.634;2023-04-15T14:18:51;3.95;;;1.50;;
70997;SDS011;58663;52.040;4.634;2023-04-15T14:21:17;4.50;;;1.60;;
70997;SDS011;58663;52.040;4.634;2023-04-15T14:23:43;1.35;;;1.20;;
70997;SDS011;58663;52.040;4.634;2023-04-15T14:26:08;2.95;;;1.67;;
70997;SDS011;58663;52.040;4.634;2023-04-15T14:28:33;4.55;;;1.30;;
70997;SDS011;58663;52.040;4.634;2023-04-15T14:30:59;2.28;;;1.30;;
70997;SDS011;58663;52.040;4.634;2023-04-15T14:33:25;4.90;;;1.70;;
70997;SDS011;58663;52.040;4.634;2023-04-15T14:35:50;3.45;;;1.45;;
70997;SDS011;58663;52.040;4.634;2023-04-15T14:38:15;2.45;;;1.48;;
70997;SDS011;58663;52.040;4.634;2023-04-15T14:40:41;4.57;;;1.40;;
70997;SDS011;58663;52.040;4.634;2023-04-15T14:43:06;5.07;;;1.48;;
70997;SDS011;58663;52.040;4.634;2023-04-15T14:45:32;2.80;;;1.58;;
70997;SDS011;58663;52.040;4.634;2023-04-15T14:47:57;4.28;;;1.45;;
70997;SDS011;58663;52.040;4.634;2023-04-15T14:50:23;1.83;;;1.45;;
70997;SDS011;58663;52.040;4.634;2023-04-15T14:52:48;2.72;;;1.40;;
70997;SDS011;58663;52.040;4.634;2023-04-15T14:55:14;2.42;;;1.23;;
70997;SDS011;58663;52.040;4.634;2023-04-15T14:57:40;5.25;;;1.60;;
70997;SDS011;58663;52.040;4.634;2023-04-15T15:00:06;3.20;;;1.27;;
70997;SDS011;58663;52.040;4.634;2023-04-15T15:02:33;2.78;;;1.38;;
70997;SDS011;58663;52.040;4.634;2023-04-15T15:05:00;3.45;;;1.52;;